createdAt,value
2023-04-11T00:18:28.588Z,3.00
2023-04-11T00:37:09.502Z,1.90
2023-04-11T01:14:24.410Z,4.20
2023-04-11T01:33:02.545Z,2.50
2023-04-11T01:51:41.293Z,3.10
2023-04-11T02:10:19.287Z,2.20
2023-04-11T02:28:57.889Z,3.90
2023-04-11T02:47:38.224Z,5.60
2023-04-11T03:06:13.530Z,3.80
2023-04-11T03:24:54.800Z,3.30
2023-04-11T03:43:33.261Z,3.30
2023-04-11T04:02:08.541Z,1.90
2023-04-11T04:20:48.771Z,2.60
2023-04-11T04:39:27.310Z,2.80
2023-04-11T04:58:06.755Z,3.50
2023-04-11T05:16:45.778Z,5.60
2023-04-11T05:35:25.010Z,3.80
2023-04-11T05:54:06.081Z,4.40
2023-04-11T06:12:46.058Z,3.80
2023-04-11T06:31:32.269Z,4.00
2023-04-11T06:50:09.495Z,5.10
2023-04-11T07:27:31.309Z,3.20
2023-04-11T07:46:11.984Z,4.00
2023-04-11T08:23:30.165Z,2.10
2023-04-11T09:00:48.020Z,3.10
2023-04-11T09:38:11.426Z,3.00
2023-04-11T09:56:52.678Z,2.90
2023-04-11T10:15:32.860Z,2.90
2023-04-11T10:34:13.928Z,2.40
2023-04-11T10:52:59.277Z,2.50
2023-04-11T11:11:39.197Z,2.30
2023-04-11T11:49:15.697Z,2.20
2023-04-11T12:07:56.142Z,3.10
2023-04-11T12:27:06.030Z,2.20
2023-04-11T12:45:42.404Z,2.00
2023-04-11T13:04:22.408Z,1.10
2023-04-11T13:22:55.962Z,1.30
2023-04-11T14:19:21.305Z,1.10
2023-04-11T14:38:02.250Z,1.50
2023-04-11T14:56:50.801Z,2.20
2023-04-11T15:33:45.811Z,2.30
2023-04-11T15:52:15.176Z,1.20
2023-04-11T16:10:43.909Z,4.00
2023-04-11T16:29:20.494Z,1.90
2023-04-11T16:48:03.664Z,1.90
2023-04-11T17:06:34.681Z,2.20
2023-04-11T17:25:11.467Z,1.00
2023-04-11T17:43:48.448Z,0.70
2023-04-11T18:02:25.746Z,1.10
2023-04-11T18:39:38.444Z,0.30
2023-04-11T18:58:16.557Z,0.30
2023-04-11T19:35:30.882Z,0.30
2023-04-11T19:54:07.301Z,0.60
2023-04-11T20:12:46.316Z,1.30
2023-04-11T20:31:21.952Z,1.40
2023-04-11T21:08:35.481Z,0.70
2023-04-11T21:45:51.979Z,3.10
2023-04-11T22:04:27.218Z,3.80
2023-04-11T22:23:04.238Z,1.30
2023-04-11T22:41:41.594Z,0.40
2023-04-11T23:18:55.683Z,1.40
2023-04-11T23:56:11.897Z,0.50
